Pine Bank, Pennsylvania
Current Conditions -  °F | °C
As of 4:03 PM on Wednesday 26 Nov 2014 (Local Time) from KMGW Reporting Station
Light Snow Light Snow  
Wind Chill: 30°   Ceiling: 200
Heat Index: 34°   Visibility: 4mi
Dew Point: 30°   Wind: 5mph
Humidity: 85%   Direction: 340°NNW
Pressure: 30.01"   Gusts: NA
Location:  39.76°N, 80.31°W
Report Text: KMGW 262103Z 34004KT 4SM -SN BR OVC002 01/M01 A3001 RMK AO2 P0000 T00111011
Loading
Personal Weather Stations






























Interactive Weather Map New forecast layout! Learn more

10-Day Weather Forecast

Advertisements
Track Severe Weather on mobile